sensor_id;sensor_type;location;lat;lon;timestamp;pressure;altitude;pressure_sealevel;temperature;humidity
55010;BME280;40903;51.638;7.528;2023-09-18T00:02:12;100178.88;;;18.98;100.00
55010;BME280;40903;51.638;7.528;2023-09-18T00:04:38;100175.31;;;18.97;100.00
55010;BME280;40903;51.638;7.528;2023-09-18T00:07:06;100176.56;;;19.00;100.00
55010;BME280;40903;51.638;7.528;2023-09-18T00:09:31;100165.16;;;19.01;100.00
55010;BME280;40903;51.638;7.528;2023-09-18T00:11:57;100155.78;;;19.06;100.00
55010;BME280;40903;51.638;7.528;2023-09-18T00:14:25;100150.25;;;19.06;100.00
55010;BME280;40903;51.638;7.528;2023-09-18T00:16:50;100145.09;;;19.04;100.00
55010;BME280;40903;51.638;7.528;2023-09-18T00:19:17;100137.59;;;19.05;100.00
55010;BME280;40903;51.638;7.528;2023-09-18T00:21:42;100141.16;;;19.05;100.00
55010;BME280;40903;51.638;7.528;2023-09-18T00:24:07;100146.69;;;19.05;100.00
55010;BME280;40903;51.638;7.528;2023-09-18T00:26:33;100135.28;;;19.07;100.00
55010;BME280;40903;51.638;7.528;2023-09-18T00:29:00;100139.34;;;19.13;100.00
55010;BME280;40903;51.638;7.528;2023-09-18T00:31:25;100136.97;;;19.11;100.00
55010;BME280;40903;51.638;7.528;2023-09-18T00:33:50;100137.31;;;19.10;100.00
55010;BME280;40903;51.638;7.528;2023-09-18T00:36:17;100132.94;;;19.09;100.00
55010;BME280;40903;51.638;7.528;2023-09-18T00:38:42;100127.78;;;19.07;100.00
55010;BME280;40903;51.638;7.528;2023-09-18T00:41:08;100132.06;;;19.05;100.00
55010;BME280;40903;51.638;7.528;2023-09-18T00:43:34;100129.66;;;19.03;100.00
55010;BME280;40903;51.638;7.528;2023-09-18T00:46:00;100115.41;;;19.01;100.00
55010;BME280;40903;51.638;7.528;2023-09-18T00:48:25;100108.28;;;19.00;100.00
55010;BME280;40903;51.638;7.528;2023-09-18T00:50:53;100104.25;;;18.98;100.00
55010;BME280;40903;51.638;7.528;2023-09-18T00:53:20;100099.13;;;18.96;100.00
55010;BME280;40903;51.638;7.528;2023-09-18T00:55:55;100084.91;;;18.98;100.00
55010;BME280;40903;51.638;7.528;2023-09-18T00:58:23;100085.31;;;18.96;100.00
55010;BME280;40903;51.638;7.528;2023-09-18T01:00:49;100076.19;;;18.96;100.00
55010;BME280;40903;51.638;7.528;2023-09-18T01:03:19;100076.56;;;18.94;100.00
55010;BME280;40903;51.638;7.528;2023-09-18T01:05:46;100071.03;;;18.94;100.00
55010;BME280;40903;51.638;7.528;2023-09-18T01:08:12;100063.09;;;18.93;100.00
55010;BME280;40903;51.638;7.528;2023-09-18T01:11:10;100051.25;;;18.92;100.00
55010;BME280;40903;51.638;7.528;2023-09-18T01:13:46;100053.66;;;18.94;100.00
55010;BME280;40903;51.638;7.528;2023-09-18T01:16:20;100052.06;;;18.93;100.00
55010;BME280;40903;51.638;7.528;2023-09-18T01:18:51;100043.75;;;18.93;100.00
55010;BME280;40903;51.638;7.528;2023-09-18T01:21:19;100046.53;;;18.93;100.00
55010;BME280;40903;51.638;7.528;2023-09-18T01:23:44;100041.00;;;18.93;100.00
55010;BME280;40903;51.638;7.528;2023-09-18T01:26:10;100041.34;;;18.91;100.00
55010;BME280;40903;51.638;7.528;2023-09-18T01:28:35;100032.28;;;18.91;100.00
55010;BME280;40903;51.638;7.528;2023-09-18T01:31:01;100032.63;;;18.89;100.00
55010;BME280;40903;51.638;7.528;2023-09-18T01:33:28;100021.56;;;18.89;100.00
55010;BME280;40903;51.638;7.528;2023-09-18T01:35:55;100030.69;;;18.90;100.00
55010;BME280;40903;51.638;7.528;2023-09-18T01:38:23;100024.72;;;18.88;100.00
55010;BME280;40903;51.638;7.528;2023-09-18T01:40:49;100026.66;;;18.87;100.00
55010;BME280;40903;51.638;7.528;2023-09-18T01:43:14;100029.00;;;18.85;100.00
55010;BME280;40903;51.638;7.528;2023-09-18T01:45:40;100034.09;;;18.83;100.00
55010;BME280;40903;51.638;7.528;2023-09-18T01:48:08;100038.00;;;18.82;100.00
55010;BME280;40903;51.638;7.528;2023-09-18T01:50:33;100038.75;;;18.79;100.00
55010;BME280;40903;51.638;7.528;2023-09-18T01:52:59;100030.00;;;18.77;100.00
55010;BME280;40903;51.638;7.528;2023-09-18T01:55:24;100022.06;;;18.76;100.00
55010;BME280;40903;51.638;7.528;2023-09-18T01:57:49;100026.00;;;18.75;100.00
55010;BME280;40903;51.638;7.528;2023-09-18T02:00:15;100025.56;;;18.73;100.00
55010;BME280;40903;51.638;7.528;2023-09-18T02:02:41;100019.59;;;18.71;100.00
55010;BME280;40903;51.638;7.528;2023-09-18T02:05:06;100015.22;;;18.70;100.00
55010;BME280;40903;51.638;7.528;2023-09-18T02:07:32;100012.84;;;18.68;100.00
55010;BME280;40903;51.638;7.528;2023-09-18T02:10:00;100010.84;;;18.69;100.00
55010;BME280;40903;51.638;7.528;2023-09-18T02:12:25;99998.22;;;18.68;100.00
55010;BME280;40903;51.638;7.528;2023-09-18T02:14:51;99987.97;;;18.68;100.00
55010;BME280;40903;51.638;7.528;2023-09-18T02:17:17;99984.41;;;18.68;100.00
55010;BME280;40903;51.638;7.528;2023-09-18T02:19:45;99981.28;;;18.69;100.00
55010;BME280;40903;51.638;7.528;2023-09-18T02:22:11;99979.78;;;18.72;100.00
55010;BME280;40903;51.638;7.528;2023-09-18T02:24:36;99978.97;;;18.71;100.00
55010;BME280;40903;51.638;7.528;2023-09-18T02:27:05;99975.84;;;18.73;100.00
55010;BME280;40903;51.638;7.528;2023-09-18T02:29:31;99969.94;;;18.74;100.00
55010;BME280;40903;51.638;7.528;2023-09-18T02:31:58;99957.72;;;18.75;100.00
55010;BME280;40903;51.638;7.528;2023-09-18T02:34:24;99956.22;;;18.78;100.00
55010;BME280;40903;51.638;7.528;2023-09-18T02:36:49;99955.50;;;18.81;100.00
55010;BME280;40903;51.638;7.528;2023-09-18T02:39:14;99947.19;;;18.81;100.00
55010;BME280;40903;51.638;7.528;2023-09-18T02:41:39;99942.53;;;18.85;100.00
55010;BME280;40903;51.638;7.528;2023-09-18T02:44:05;99935.88;;;18.86;100.00
55010;BME280;40903;51.638;7.528;2023-09-18T02:46:30;99924.44;;;18.87;100.00
55010;BME280;40903;51.638;7.528;2023-09-18T02:48:55;99918.56;;;18.89;100.00
55010;BME280;40903;51.638;7.528;2023-09-18T02:51:21;99915.06;;;18.92;100.00
55010;BME280;40903;51.638;7.528;2023-09-18T02:53:46;99913.16;;;18.96;100.00
55010;BME280;40903;51.638;7.528;2023-09-18T02:56:12;99900.59;;;18.98;100.00
55010;BME280;40903;51.638;7.528;2023-09-18T02:58:37;99899.44;;;18.99;100.00
55010;BME280;40903;51.638;7.528;2023-09-18T03:01:03;99884.88;;;19.02;100.00
55010;BME280;40903;51.638;7.528;2023-09-18T03:03:30;99886.47;;;19.03;100.00
55010;BME280;40903;51.638;7.528;2023-09-18T03:06:03;99870.69;;;19.04;100.00
55010;BME280;40903;51.638;7.528;2023-09-18T03:08:29;99870.69;;;19.04;100.00
55010;BME280;40903;51.638;7.528;2023-09-18T03:10:55;99860.06;;;19.06;100.00
55010;BME280;40903;51.638;7.528;2023-09-18T03:13:21;99860.06;;;19.06;100.00
55010;BME280;40903;51.638;7.528;2023-09-18T03:15:46;99870.75;;;19.07;100.00
55010;BME280;40903;51.638;7.528;2023-09-18T03:18:15;99868.78;;;19.08;100.00
55010;BME280;40903;51.638;7.528;2023-09-18T03:20:40;99864.88;;;19.09;100.00
55010;BME280;40903;51.638;7.528;2023-09-18T03:23:06;99863.69;;;19.10;100.00
55010;BME280;40903;51.638;7.528;2023-09-18T03:25:31;99863.69;;;19.10;100.00
55010;BME280;40903;51.638;7.528;2023-09-18T03:27:57;99857.38;;;19.09;100.00
55010;BME280;40903;51.638;7.528;2023-09-18T03:30:23;99855.41;;;19.10;100.00
55010;BME280;40903;51.638;7.528;2023-09-18T03:32:49;99856.22;;;19.10;100.00
55010;BME280;40903;51.638;7.528;2023-09-18T03:35:15;99843.19;;;19.11;100.00
55010;BME280;40903;51.638;7.528;2023-09-18T03:37:50;99849.88;;;19.10;100.00
55010;BME280;40903;51.638;7.528;2023-09-18T03:40:16;99837.22;;;19.09;100.00
55010;BME280;40903;51.638;7.528;2023-09-18T03:42:42;99844.34;;;19.10;100.00
55010;BME280;40903;51.638;7.528;2023-09-18T03:45:08;99831.38;;;19.14;100.00
55010;BME280;40903;51.638;7.528;2023-09-18T03:47:35;99821.94;;;19.15;100.00
55010;BME280;40903;51.638;7.528;2023-09-18T03:50:05;99809.72;;;19.16;100.00
55010;BME280;40903;51.638;7.528;2023-09-18T03:52:30;99810.19;;;19.18;100.00
55010;BME280;40903;51.638;7.528;2023-09-18T03:54:56;99812.56;;;19.19;100.00
55010;BME280;40903;51.638;7.528;2023-09-18T03:57:22;99816.16;;;19.20;100.00
55010;BME280;40903;51.638;7.528;2023-09-18T03:59:47;99810.63;;;19.20;100.00
55010;BME280;40903;51.638;7.528;2023-09-18T04:02:12;99801.16;;;19.21;100.00
55010;BME280;40903;51.638;7.528;2023-09-18T04:04:39;99807.09;;;19.23;100.00
55010;BME280;40903;51.638;7.528;2023-09-18T04:07:08;99809.13;;;19.26;100.00
55010;BME280;40903;51.638;7.528;2023-09-18T04:09:33;99796.16;;;19.30;100.00
55010;BME280;40903;51.638;7.528;2023-09-18T04:12:04;99788.34;;;19.35;100.00
55010;BME280;40903;51.638;7.528;2023-09-18T04:14:32;99779.75;;;19.40;100.00
55010;BME280;40903;51.638;7.528;2023-09-18T04:16:58;99772.72;;;19.46;100.00
55010;BME280;40903;51.638;7.528;2023-09-18T04:19:23;99773.56;;;19.50;100.00
55010;BME280;40903;51.638;7.528;2023-09-18T04:21:49;99781.94;;;19.54;100.00
55010;BME280;40903;51.638;7.528;2023-09-18T04:24:14;99760.28;;;19.59;100.00
55010;BME280;40903;51.638;7.528;2023-09-18T04:26:39;99770.25;;;19.64;100.00
55010;BME280;40903;51.638;7.528;2023-09-18T04:29:05;99769.13;;;19.68;100.00
55010;BME280;40903;51.638;7.528;2023-09-18T04:31:31;99767.56;;;19.71;100.00
55010;BME280;40903;51.638;7.528;2023-09-18T04:33:56;99767.97;;;19.73;100.00
55010;BME280;40903;51.638;7.528;2023-09-18T04:36:23;99764.50;;;19.76;100.00
55010;BME280;40903;51.638;7.528;2023-09-18T04:38:50;99768.47;;;19.78;100.00
55010;BME280;40903;51.638;7.528;2023-09-18T04:41:15;99773.63;;;19.80;100.00
55010;BME280;40903;51.638;7.528;2023-09-18T04:43:42;99777.25;;;19.84;100.00
55010;BME280;40903;51.638;7.528;2023-09-18T04:46:10;99784.00;;;19.86;100.00
55010;BME280;40903;51.638;7.528;2023-09-18T04:48:35;99779.69;;;19.88;100.00
55010;BME280;40903;51.638;7.528;2023-09-18T04:51:01;99780.53;;;19.92;100.00
55010;BME280;40903;51.638;7.528;2023-09-18T04:53:28;99778.19;;;19.94;100.00
55010;BME280;40903;51.638;7.528;2023-09-18T04:55:56;99785.78;;;20.01;100.00
55010;BME280;40903;51.638;7.528;2023-09-18T04:58:21;99789.06;;;20.06;100.00
55010;BME280;40903;51.638;7.528;2023-09-18T05:00:53;99789.66;;;20.22;100.00
55010;BME280;40903;51.638;7.528;2023-09-18T05:03:19;99785.91;;;20.37;100.00
55010;BME280;40903;51.638;7.528;2023-09-18T05:05:45;99774.13;;;20.47;100.00
55010;BME280;40903;51.638;7.528;2023-09-18T05:08:10;99763.16;;;20.54;100.00
55010;BME280;40903;51.638;7.528;2023-09-18T05:10:36;99767.97;;;20.61;100.00
55010;BME280;40903;51.638;7.528;2023-09-18T05:13:06;99770.69;;;20.57;100.00
55010;BME280;40903;51.638;7.528;2023-09-18T05:15:32;99773.88;;;20.59;100.00
55010;BME280;40903;51.638;7.528;2023-09-18T05:17:59;99783.00;;;20.60;100.00
55010;BME280;40903;51.638;7.528;2023-09-18T05:20:26;99789.78;;;20.66;100.00
55010;BME280;40903;51.638;7.528;2023-09-18T05:22:53;99773.56;;;20.68;100.00
55010;BME280;40903;51.638;7.528;2023-09-18T05:25:24;99780.34;;;20.70;100.00
55010;BME280;40903;51.638;7.528;2023-09-18T05:27:54;99777.94;;;20.69;100.00
55010;BME280;40903;51.638;7.528;2023-09-18T05:30:27;99768.84;;;20.68;100.00
55010;BME280;40903;51.638;7.528;2023-09-18T05:32:56;99775.22;;;20.72;100.00
55010;BME280;40903;51.638;7.528;2023-09-18T05:35:21;99785.47;;;20.72;100.00
55010;BME280;40903;51.638;7.528;2023-09-18T05:37:49;99796.19;;;20.73;100.00
55010;BME280;40903;51.638;7.528;2023-09-18T05:40:16;99791.88;;;20.76;100.00
55010;BME280;40903;51.638;7.528;2023-09-18T05:42:42;99785.63;;;20.82;100.00
55010;BME280;40903;51.638;7.528;2023-09-18T05:45:09;99780.06;;;20.82;100.00
55010;BME280;40903;51.638;7.528;2023-09-18T05:47:35;99788.84;;;20.88;100.00
55010;BME280;40903;51.638;7.528;2023-09-18T05:50:02;99790.88;;;20.91;100.00
55010;BME280;40903;51.638;7.528;2023-09-18T05:52:32;99794.44;;;20.91;100.00
55010;BME280;40903;51.638;7.528;2023-09-18T05:54:59;99801.56;;;20.92;100.00
55010;BME280;40903;51.638;7.528;2023-09-18T05:57:24;99807.09;;;20.89;100.00
55010;BME280;40903;51.638;7.528;2023-09-18T05:59:49;99811.41;;;20.86;100.00
55010;BME280;40903;51.638;7.528;2023-09-18T06:02:15;99811.41;;;20.86;100.00
55010;BME280;40903;51.638;7.528;2023-09-18T06:04:46;99811.81;;;20.88;100.00
55010;BME280;40903;51.638;7.528;2023-09-18T06:07:11;99825.31;;;20.90;100.00
55010;BME280;40903;51.638;7.528;2023-09-18T06:09:38;99823.75;;;20.92;100.00
55010;BME280;40903;51.638;7.528;2023-09-18T06:12:05;99820.56;;;20.90;100.00
55010;BME280;40903;51.638;7.528;2023-09-18T06:14:32;99813.06;;;20.91;100.00
55010;BME280;40903;51.638;7.528;2023-09-18T06:17:00;99815.06;;;20.94;100.00
55010;BME280;40903;51.638;7.528;2023-09-18T06:19:25;99815.88;;;20.98;100.00
55010;BME280;40903;51.638;7.528;2023-09-18T06:21:50;99807.59;;;21.01;100.00
55010;BME280;40903;51.638;7.528;2023-09-18T06:24:16;99815.56;;;21.06;100.00
55010;BME280;40903;51.638;7.528;2023-09-18T06:26:41;99812.03;;;21.09;100.00
55010;BME280;40903;51.638;7.528;2023-09-18T06:29:07;99821.19;;;21.13;100.00
55010;BME280;40903;51.638;7.528;2023-09-18T06:31:35;99812.88;;;21.13;100.00
55010;BME280;40903;51.638;7.528;2023-09-18T06:34:00;99822.78;;;21.14;100.00
55010;BME280;40903;51.638;7.528;2023-09-18T06:36:26;99828.72;;;21.13;100.00
55010;BME280;40903;51.638;7.528;2023-09-18T06:38:51;99840.22;;;21.15;100.00
55010;BME280;40903;51.638;7.528;2023-09-18T06:41:16;99850.88;;;21.13;100.00
55010;BME280;40903;51.638;7.528;2023-09-18T06:43:43;99858.03;;;21.14;100.00
55010;BME280;40903;51.638;7.528;2023-09-18T06:46:10;99855.66;;;21.12;100.00
55010;BME280;40903;51.638;7.528;2023-09-18T06:48:35;99854.47;;;21.13;100.00
55010;BME280;40903;51.638;7.528;2023-09-18T06:51:01;99854.06;;;21.15;100.00
55010;BME280;40903;51.638;7.528;2023-09-18T06:53:27;99855.66;;;21.12;100.00
55010;BME280;40903;51.638;7.528;2023-09-18T06:55:54;99851.75;;;21.20;100.00
55010;BME280;40903;51.638;7.528;2023-09-18T06:58:19;99845.06;;;21.25;100.00
55010;BME280;40903;51.638;7.528;2023-09-18T07:00:45;99843.88;;;21.26;100.00
55010;BME280;40903;51.638;7.528;2023-09-18T07:03:10;99862.84;;;21.20;100.00
55010;BME280;40903;51.638;7.528;2023-09-18T07:05:37;99868.81;;;21.22;100.00
55010;BME280;40903;51.638;7.528;2023-09-18T07:08:04;99862.84;;;21.20;100.00
55010;BME280;40903;51.638;7.528;2023-09-18T07:10:31;99873.16;;;21.23;100.00
55010;BME280;40903;51.638;7.528;2023-09-18T07:12:56;99875.56;;;21.25;100.00
55010;BME280;40903;51.638;7.528;2023-09-18T07:15:21;99887.44;;;21.25;100.00
55010;BME280;40903;51.638;7.528;2023-09-18T07:17:46;99871.63;;;21.26;100.00
55010;BME280;40903;51.638;7.528;2023-09-18T07:20:13;99880.75;;;21.30;100.00
55010;BME280;40903;51.638;7.528;2023-09-18T07:22:39;99881.22;;;21.35;100.00
55010;BME280;40903;51.638;7.528;2023-09-18T07:25:06;99898.31;;;21.41;100.00
55010;BME280;40903;51.638;7.528;2023-09-18T07:27:32;99886.13;;;21.49;100.00
55010;BME280;40903;51.638;7.528;2023-09-18T07:29:57;99876.56;;;21.46;100.00
55010;BME280;40903;51.638;7.528;2023-09-18T07:32:25;99876.94;;;21.45;100.00
55010;BME280;40903;51.638;7.528;2023-09-18T07:34:53;99882.13;;;21.46;100.00
55010;BME280;40903;51.638;7.528;2023-09-18T07:37:19;99888.53;;;21.54;100.00
55010;BME280;40903;51.638;7.528;2023-09-18T07:39:46;99882.25;;;21.60;100.00
55010;BME280;40903;51.638;7.528;2023-09-18T07:42:11;99883.91;;;21.65;100.00
55010;BME280;40903;51.638;7.528;2023-09-18T07:44:37;99882.00;;;21.72;100.00
55010;BME280;40903;51.638;7.528;2023-09-18T07:47:03;99883.22;;;21.78;100.00
55010;BME280;40903;51.638;7.528;2023-09-18T07:49:30;99884.88;;;21.86;100.00
55010;BME280;40903;51.638;7.528;2023-09-18T07:51:56;99881.31;;;21.89;100.00
55010;BME280;40903;51.638;7.528;2023-09-18T07:54:23;99884.09;;;21.93;99.55
55010;BME280;40903;51.638;7.528;2023-09-18T07:56:49;99898.47;;;22.02;99.86
55010;BME280;40903;51.638;7.528;2023-09-18T07:59:16;99898.44;;;21.98;98.02
55010;BME280;40903;51.638;7.528;2023-09-18T08:01:42;99896.88;;;22.01;96.86
55010;BME280;40903;51.638;7.528;2023-09-18T08:04:07;99885.78;;;22.07;98.83
55010;BME280;40903;51.638;7.528;2023-09-18T08:06:33;99882.63;;;22.05;97.13
55010;BME280;40903;51.638;7.528;2023-09-18T08:09:00;99886.19;;;22.06;95.88
55010;BME280;40903;51.638;7.528;2023-09-18T08:11:25;99881.06;;;22.08;96.54
55010;BME280;40903;51.638;7.528;2023-09-18T08:13:50;99902.09;;;22.09;96.89
55010;BME280;40903;51.638;7.528;2023-09-18T08:16:16;99907.19;;;22.03;96.57
55010;BME280;40903;51.638;7.528;2023-09-18T08:18:42;99919.97;;;22.11;97.42
55010;BME280;40903;51.638;7.528;2023-09-18T08:21:09;99928.75;;;22.20;97.73
55010;BME280;40903;51.638;7.528;2023-09-18T08:23:35;99934.38;;;22.27;97.96
55010;BME280;40903;51.638;7.528;2023-09-18T08:26:02;99918.13;;;22.33;95.39
55010;BME280;40903;51.638;7.528;2023-09-18T08:28:29;99918.19;;;22.40;95.49
55010;BME280;40903;51.638;7.528;2023-09-18T08:30:54;99917.81;;;22.41;95.51
55010;BME280;40903;51.638;7.528;2023-09-18T08:33:20;99926.59;;;22.47;95.55
55010;BME280;40903;51.638;7.528;2023-09-18T08:35:45;99909.16;;;22.53;94.34
55010;BME280;40903;51.638;7.528;2023-09-18T08:38:13;99933.38;;;22.60;96.22
55010;BME280;40903;51.638;7.528;2023-09-18T08:40:41;99925.03;;;22.60;92.14
55010;BME280;40903;51.638;7.528;2023-09-18T08:43:10;99922.56;;;22.41;90.86
55010;BME280;40903;51.638;7.528;2023-09-18T08:45:55;99938.47;;;22.47;93.26
55010;BME280;40903;51.638;7.528;2023-09-18T08:48:24;99930.53;;;22.46;92.23
55010;BME280;40903;51.638;7.528;2023-09-18T08:50:51;99933.69;;;22.44;93.10
55010;BME280;40903;51.638;7.528;2023-09-18T08:53:16;99929.75;;;22.49;93.72
55010;BME280;40903;51.638;7.528;2023-09-18T08:55:42;99926.59;;;22.54;93.58
55010;BME280;40903;51.638;7.528;2023-09-18T08:58:07;99912.69;;;22.50;91.93
55010;BME280;40903;51.638;7.528;2023-09-18T09:00:33;99919.00;;;22.40;91.05
55010;BME280;40903;51.638;7.528;2023-09-18T09:03:02;99941.59;;;22.39;91.37
55010;BME280;40903;51.638;7.528;2023-09-18T09:05:28;99947.97;;;22.43;91.85
55010;BME280;40903;51.638;7.528;2023-09-18T09:07:54;99964.69;;;22.46;92.58
55010;BME280;40903;51.638;7.528;2023-09-18T09:10:20;99953.16;;;22.44;91.97
55010;BME280;40903;51.638;7.528;2023-09-18T09:12:59;99940.88;;;22.49;92.40
55010;BME280;40903;51.638;7.528;2023-09-18T09:15:32;99947.28;;;22.56;91.50
55010;BME280;40903;51.638;7.528;2023-09-18T09:18:07;99946.50;;;22.59;90.43
55010;BME280;40903;51.638;7.528;2023-09-18T09:20:35;99936.97;;;22.60;89.34
55010;BME280;40903;51.638;7.528;2023-09-18T09:23:06;99933.03;;;22.65;88.61
55010;BME280;40903;51.638;7.528;2023-09-18T09:25:33;99923.53;;;22.69;88.86
55010;BME280;40903;51.638;7.528;2023-09-18T09:28:04;99927.53;;;22.79;88.58
55010;BME280;40903;51.638;7.528;2023-09-18T09:30:30;99929.56;;;22.92;88.86
55010;BME280;40903;51.638;7.528;2023-09-18T09:32:58;99930.88;;;23.16;87.02
55010;BME280;40903;51.638;7.528;2023-09-18T09:35:26;99939.28;;;23.40;87.33
55010;BME280;40903;51.638;7.528;2023-09-18T09:38:07;99940.53;;;23.60;87.09
55010;BME280;40903;51.638;7.528;2023-09-18T09:40:34;99942.09;;;23.58;83.13
55010;BME280;40903;51.638;7.528;2023-09-18T09:43:00;99947.66;;;23.54;85.66
55010;BME280;40903;51.638;7.528;2023-09-18T09:45:28;99945.28;;;23.60;85.48
55010;BME280;40903;51.638;7.528;2023-09-18T09:47:56;99945.69;;;23.55;82.17
55010;BME280;40903;51.638;7.528;2023-09-18T09:50:24;99948.84;;;23.53;82.83
55010;BME280;40903;51.638;7.528;2023-09-18T09:52:52;99945.28;;;23.49;82.25
55010;BME280;40903;51.638;7.528;2023-09-18T09:55:30;99960.38;;;23.48;84.00
55010;BME280;40903;51.638;7.528;2023-09-18T09:57:58;99962.72;;;23.29;80.25
55010;BME280;40903;51.638;7.528;2023-09-18T10:00:43;99974.63;;;23.33;83.69
55010;BME280;40903;51.638;7.528;2023-09-18T10:03:17;99955.56;;;23.31;85.46
55010;BME280;40903;51.638;7.528;2023-09-18T10:05:44;99961.16;;;23.42;85.22
55010;BME280;40903;51.638;7.528;2023-09-18T10:08:21;99958.41;;;23.45;81.60
55010;BME280;40903;51.638;7.528;2023-09-18T10:10:52;99965.53;;;23.50;82.11
55010;BME280;40903;51.638;7.528;2023-09-18T10:13:32;99958.00;;;23.57;79.99
55010;BME280;40903;51.638;7.528;2023-09-18T10:15:58;99949.28;;;23.62;79.91
55010;BME280;40903;51.638;7.528;2023-09-18T10:18:38;99952.47;;;23.68;81.37
55010;BME280;40903;51.638;7.528;2023-09-18T10:21:38;99969.16;;;23.54;80.24
55010;BME280;40903;51.638;7.528;2023-09-18T10:26:39;99961.56;;;23.47;79.31
55010;BME280;40903;51.638;7.528;2023-09-18T10:29:09;99973.88;;;23.50;79.18
55010;BME280;40903;51.638;7.528;2023-09-18T10:31:38;99962.34;;;23.48;79.72
55010;BME280;40903;51.638;7.528;2023-09-18T10:34:06;99973.09;;;23.46;79.62
55010;BME280;40903;51.638;7.528;2023-09-18T10:36:34;99961.56;;;23.51;79.56
55010;BME280;40903;51.638;7.528;2023-09-18T10:39:01;99961.19;;;23.52;78.67
55010;BME280;40903;51.638;7.528;2023-09-18T10:41:34;99965.97;;;23.59;77.98
55010;BME280;40903;51.638;7.528;2023-09-18T10:44:01;99957.22;;;23.67;79.17
55010;BME280;40903;51.638;7.528;2023-09-18T10:46:29;99950.91;;;23.88;81.98
55010;BME280;40903;51.638;7.528;2023-09-18T10:48:55;99945.34;;;24.16;79.19
55010;BME280;40903;51.638;7.528;2023-09-18T10:51:22;99944.94;;;24.41;78.42
55010;BME280;40903;51.638;7.528;2023-09-18T10:53:51;99958.88;;;24.52;74.56
55010;BME280;40903;51.638;7.528;2023-09-18T10:56:20;99961.66;;;24.52;73.48
55010;BME280;40903;51.638;7.528;2023-09-18T10:58:46;99949.31;;;24.56;73.06
55010;BME280;40903;51.638;7.528;2023-09-18T11:01:12;99947.69;;;24.62;73.43
55010;BME280;40903;51.638;7.528;2023-09-18T11:03:38;99952.47;;;24.58;73.30
55010;BME280;40903;51.638;7.528;2023-09-18T11:06:09;99958.84;;;24.38;71.48
55010;BME280;40903;51.638;7.528;2023-09-18T11:08:46;99950.84;;;24.50;74.19
55010;BME280;40903;51.638;7.528;2023-09-18T11:11:13;99950.47;;;24.48;74.97
55010;BME280;40903;51.638;7.528;2023-09-18T11:13:42;99958.03;;;24.72;74.75
55010;BME280;40903;51.638;7.528;2023-09-18T11:19:05;99955.56;;;24.88;72.29
55010;BME280;40903;51.638;7.528;2023-09-18T11:21:33;99949.19;;;24.91;72.96
55010;BME280;40903;51.638;7.528;2023-09-18T11:24:07;99942.41;;;24.89;74.06
55010;BME280;40903;51.638;7.528;2023-09-18T11:26:47;99939.91;;;25.19;76.12
55010;BME280;40903;51.638;7.528;2023-09-18T11:29:16;99939.50;;;25.13;67.89
55010;BME280;40903;51.638;7.528;2023-09-18T11:31:56;99931.56;;;25.08;70.27
55010;BME280;40903;51.638;7.528;2023-09-18T11:34:24;99927.22;;;25.00;71.12
55010;BME280;40903;51.638;7.528;2023-09-18T11:37:21;99933.53;;;25.11;70.35
55010;BME280;40903;51.638;7.528;2023-09-18T11:39:46;99932.34;;;25.12;71.64
55010;BME280;40903;51.638;7.528;2023-09-18T11:42:19;99928.28;;;25.31;69.38
55010;BME280;40903;51.638;7.528;2023-09-18T11:44:46;99933.81;;;25.41;68.54
55010;BME280;40903;51.638;7.528;2023-09-18T11:47:15;99927.66;;;25.67;70.47
55010;BME280;40903;51.638;7.528;2023-09-18T11:49:51;99932.69;;;25.83;69.03
55010;BME280;40903;51.638;7.528;2023-09-18T11:52:25;99929.91;;;25.83;67.36
55010;BME280;40903;51.638;7.528;2023-09-18T11:54:52;99928.69;;;25.84;68.07
55010;BME280;40903;51.638;7.528;2023-09-18T11:57:18;99927.19;;;25.76;65.39
55010;BME280;40903;51.638;7.528;2023-09-18T11:59:49;99919.91;;;25.92;67.89
55010;BME280;40903;51.638;7.528;2023-09-18T12:02:28;99927.00;;;26.04;66.36
55010;BME280;40903;51.638;7.528;2023-09-18T12:05:05;99923.59;;;26.23;63.46
55010;BME280;40903;51.638;7.528;2023-09-18T12:07:32;99915.16;;;26.30;63.13
55010;BME280;40903;51.638;7.528;2023-09-18T12:09:58;99921.91;;;26.32;63.76
55010;BME280;40903;51.638;7.528;2023-09-18T12:12:24;99917.06;;;26.36;65.31
55010;BME280;40903;51.638;7.528;2023-09-18T12:14:51;99919.59;;;26.24;64.23
55010;BME280;40903;51.638;7.528;2023-09-18T12:17:19;99919.69;;;26.17;64.21
55010;BME280;40903;51.638;7.528;2023-09-18T12:19:54;99909.03;;;26.41;65.82
55010;BME280;40903;51.638;7.528;2023-09-18T12:22:26;99918.44;;;26.61;63.57
55010;BME280;40903;51.638;7.528;2023-09-18T12:24:52;99925.88;;;26.75;61.80
55010;BME280;40903;51.638;7.528;2023-09-18T12:27:18;99935.28;;;26.54;60.04
55010;BME280;40903;51.638;7.528;2023-09-18T12:29:44;99923.50;;;26.33;61.42
55010;BME280;40903;51.638;7.528;2023-09-18T12:32:10;99917.88;;;26.36;62.29
55010;BME280;40903;51.638;7.528;2023-09-18T12:34:40;99918.03;;;26.23;60.98
55010;BME280;40903;51.638;7.528;2023-09-18T12:37:08;99905.28;;;26.18;62.26
55010;BME280;40903;51.638;7.528;2023-09-18T12:39:36;99904.69;;;25.97;61.88
55010;BME280;40903;51.638;7.528;2023-09-18T12:42:01;99900.31;;;25.96;63.27
55010;BME280;40903;51.638;7.528;2023-09-18T12:44:28;99898.22;;;26.03;64.70
55010;BME280;40903;51.638;7.528;2023-09-18T12:46:54;99895.41;;;26.07;64.43
55010;BME280;40903;51.638;7.528;2023-09-18T12:49:21;99891.97;;;25.92;61.51
55010;BME280;40903;51.638;7.528;2023-09-18T12:51:57;99893.50;;;25.97;61.12
55010;BME280;40903;51.638;7.528;2023-09-18T12:57:09;99893.44;;;26.04;64.67
55010;BME280;40903;51.638;7.528;2023-09-18T12:59:36;99891.97;;;25.92;62.93
55010;BME280;40903;51.638;7.528;2023-09-18T13:02:02;99888.84;;;25.80;62.68
55010;BME280;40903;51.638;7.528;2023-09-18T13:04:36;99885.50;;;25.48;62.59